Time;durP1;ratioP1;P1;durP2;ratioP2;P2;SDS_P1;SDS_P2;PMS_P1;PMS_P2;Temp;Humidity;BMP_temperature;BMP_pressure;BME280_temperature;BME280_humidity;BME280_pressure;Samples;Min_cycle;Max_cycle;Signal;HPM_P1;HPM_P2
2023/12/22 00:01:26;;;;;;;0.90;0.50;;;9.10;41.70;;;;;;5052301;28;20199;-50
2023/12/22 00:03:52;;;;;;;0.80;0.40;;;9.10;41.40;;;;;;5052307;28;20538;-55
2023/12/22 00:06:18;;;;;;;1.53;1.00;;;9.20;41.40;;;;;;5052283;28;20287;-51
2023/12/22 00:08:43;;;;;;;1.67;0.70;;;9.20;41.00;;;;;;5052145;28;20207;-50
2023/12/22 00:11:09;;;;;;;0.90;0.60;;;9.20;41.00;;;;;;5061705;22;20227;-50
2023/12/22 00:13:35;;;;;;;0.80;0.30;;;9.20;40.20;;;;;;5052204;28;20184;-50
2023/12/22 00:16:01;;;;;;;1.20;0.83;;;9.00;41.10;;;;;;5042034;28;20184;-50
2023/12/22 00:18:27;;;;;;;0.80;0.40;;;8.90;42.60;;;;;;5032081;28;20177;-48
2023/12/22 00:20:53;;;;;;;0.98;0.68;;;9.00;41.20;;;;;;5032111;28;20440;-49
2023/12/22 00:23:19;;;;;;;1.73;1.00;;;8.90;41.30;;;;;;5032178;28;20177;-51
2023/12/22 00:25:44;;;;;;;2.83;1.45;;;8.80;41.30;;;;;;5032217;28;20736;-48
2023/12/22 00:28:10;;;;;;;0.93;0.63;;;9.00;40.90;;;;;;5031881;28;20231;-47
2023/12/22 00:30:36;;;;;;;0.80;0.40;;;9.20;40.40;;;;;;5031893;28;20198;-57
2023/12/22 00:33:02;;;;;;;0.90;0.43;;;9.10;39.70;;;;;;5029855;28;20440;-48
2023/12/22 00:35:28;;;;;;;1.75;0.82;;;9.00;39.90;;;;;;5017896;28;20176;-50
2023/12/22 00:37:54;;;;;;;1.80;1.30;;;9.00;39.50;;;;;;5023121;28;20257;-53
2023/12/22 00:40:19;;;;;;;1.27;1.17;;;9.00;39.90;;;;;;5032071;28;20181;-51
2023/12/22 00:42:45;;;;;;;3.13;1.00;;;8.80;39.80;;;;;;5031994;28;20174;-48
2023/12/22 00:45:11;;;;;;;0.90;0.50;;;8.80;41.00;;;;;;5031810;28;20272;-53
2023/12/22 00:47:37;;;;;;;37.67;1.47;;;8.80;41.10;;;;;;5031638;28;20190;-47
2023/12/22 00:50:04;;;;;;;1.88;1.77;;;8.90;41.00;;;;;;5031951;28;20178;-54
2023/12/22 00:52:30;;;;;;;1.10;0.63;;;8.90;40.80;;;;;;5031946;28;20261;-48
2023/12/22 00:54:56;;;;;;;0.95;0.65;;;9.00;40.80;;;;;;5031747;28;20187;-48
2023/12/22 00:57:22;;;;;;;1.00;0.80;;;9.10;40.40;;;;;;5031594;28;20207;-54
2023/12/22 00:59:48;;;;;;;0.80;0.40;;;8.90;40.40;;;;;;5031729;28;20178;-53
2023/12/22 01:02:18;;;;;;;1.03;0.80;;;8.80;40.60;;;;;;5031605;28;20434;-47
2023/12/22 01:04:44;;;;;;;1.00;0.90;;;8.80;40.60;;;;;;5031680;28;20975;-50
2023/12/22 01:07:10;;;;;;;1.52;1.33;;;8.80;40.60;;;;;;5031407;28;20174;-50
2023/12/22 01:09:40;;;;;;;3.85;0.65;;;8.60;41.00;;;;;;5031671;28;20185;-49
2023/12/22 01:12:06;;;;;;;0.95;0.65;;;8.70;40.80;;;;;;5031429;28;20221;-48
2023/12/22 01:14:33;;;;;;;1.00;0.90;;;8.60;41.30;;;;;;5031683;28;20178;-51
2023/12/22 01:17:01;;;;;;;1.65;0.63;;;8.90;41.00;;;;;;5031499;28;20221;-52
2023/12/22 01:19:27;;;;;;;1.20;0.60;;;9.10;40.40;;;;;;5031632;28;20239;-48
2023/12/22 01:21:53;;;;;;;0.90;0.57;;;8.90;40.50;;;;;;5031347;28;20626;-51
2023/12/22 01:24:18;;;;;;;7.67;0.80;;;9.00;41.00;;;;;;5031539;28;20887;-53
2023/12/22 01:26:44;;;;;;;1.00;0.73;;;9.10;40.70;;;;;;5031543;28;20197;-49
2023/12/22 01:29:10;;;;;;;0.97;0.70;;;9.00;40.00;;;;;;5031311;28;20655;-49
2023/12/22 01:31:36;;;;;;;6.68;0.68;;;9.00;40.60;;;;;;5031266;28;20194;-49
2023/12/22 01:34:01;;;;;;;0.87;0.47;;;9.10;40.30;;;;;;5031360;28;20213;-48
2023/12/22 01:36:27;;;;;;;0.90;0.70;;;9.30;39.60;;;;;;5031455;28;20420;-48
2023/12/22 01:38:53;;;;;;;0.90;0.60;;;9.00;40.10;;;;;;5031289;28;20210;-54
2023/12/22 01:41:18;;;;;;;0.90;0.50;;;8.90;40.40;;;;;;5031390;28;20650;-47
2023/12/22 01:43:44;;;;;;;1.00;0.57;;;9.00;40.40;;;;;;5031390;28;20707;-54
2023/12/22 01:46:12;;;;;;;0.80;0.30;;;9.00;40.70;;;;;;5031151;28;20230;-47
2023/12/22 01:48:38;;;;;;;0.80;0.30;;;9.10;40.20;;;;;;5031356;28;20300;-50
2023/12/22 01:51:05;;;;;;;3.00;2.80;;;9.10;40.10;;;;;;5033613;28;20224;-51
2023/12/22 01:53:32;;;;;;;1.27;1.05;;;9.20;40.20;;;;;;5034893;28;20897;-50
2023/12/22 01:56:01;;;;;;;1.25;0.98;;;9.10;40.30;;;;;;5034884;28;20189;-48
2023/12/22 01:58:29;;;;;;;0.95;0.68;;;9.20;40.60;;;;;;5034690;28;20185;-50
2023/12/22 02:00:55;;;;;;;0.90;0.55;;;9.30;40.00;;;;;;5034804;28;20208;-51
2023/12/22 02:03:21;;;;;;;1.00;0.63;;;9.30;40.90;;;;;;5034786;28;20184;-48
2023/12/22 02:05:47;;;;;;;0.98;0.82;;;9.30;41.20;;;;;;5034629;28;20574;-51
2023/12/22 02:08:15;;;;;;;0.90;0.50;;;9.00;42.00;;;;;;5034585;28;20170;-52
2023/12/22 02:10:41;;;;;;;0.80;0.30;;;9.00;42.50;;;;;;5034511;28;20529;-48
2023/12/22 02:13:09;;;;;;;0.90;0.47;;;9.00;42.70;;;;;;5034580;28;20271;-54
2023/12/22 02:15:35;;;;;;;0.80;0.30;;;9.00;42.80;;;;;;5034799;28;20177;-48
2023/12/22 02:18:16;;;;;;;1.00;0.70;;;9.00;42.90;;;;;;5034447;28;20182;-50
2023/12/22 02:20:44;;;;;;;0.85;0.50;;;9.10;42.90;;;;;;5034402;28;20820;-48
2023/12/22 02:23:09;;;;;;;3.10;1.67;;;8.90;42.80;;;;;;5034419;28;20185;-52
2023/12/22 02:25:35;;;;;;;2.83;1.90;;;8.70;43.00;;;;;;5034326;28;20710;-54
2023/12/22 02:28:07;;;;;;;0.90;0.30;;;8.70;42.80;;;;;;5034230;28;21208;-48
2023/12/22 02:30:49;;;;;;;0.80;0.40;;;8.70;42.90;;;;;;5034327;28;20568;-49
2023/12/22 02:33:16;;;;;;;1.02;0.40;;;8.70;43.30;;;;;;5034356;28;20193;-51
2023/12/22 02:35:44;;;;;;;1.55;1.45;;;8.60;43.20;;;;;;5034199;28;20177;-49
2023/12/22 02:38:12;;;;;;;6.32;0.90;;;8.70;43.10;;;;;;5033869;28;20218;-51
2023/12/22 02:40:39;;;;;;;0.90;0.40;;;8.80;42.50;;;;;;5034040;28;20224;-54
2023/12/22 02:43:06;;;;;;;12.57;1.33;;;8.80;42.20;;;;;;5034141;28;20496;-50
2023/12/22 02:45:32;;;;;;;0.90;0.40;;;8.90;42.20;;;;;;5033953;28;20200;-52
2023/12/22 02:47:58;;;;;;;1.03;0.93;;;9.00;42.70;;;;;;5033792;28;20546;-50
2023/12/22 02:50:24;;;;;;;0.90;0.60;;;9.00;41.70;;;;;;5033857;28;20429;-50
2023/12/22 02:52:50;;;;;;;0.80;0.33;;;8.90;41.70;;;;;;5033760;28;20427;-53
2023/12/22 02:55:15;;;;;;;0.90;0.55;;;8.90;41.90;;;;;;5033880;28;20440;-48
2023/12/22 02:57:41;;;;;;;5.50;0.87;;;8.70;41.70;;;;;;5033614;28;20176;-47
2023/12/22 03:00:07;;;;;;;1.53;0.63;;;8.60;42.00;;;;;;5033956;28;20223;-51
2023/12/22 03:02:33;;;;;;;0.90;0.52;;;8.50;42.00;;;;;;5033330;28;20177;-51
2023/12/22 03:04:59;;;;;;;1.53;0.60;;;8.50;41.80;;;;;;5033565;28;20571;-48
2023/12/22 03:07:24;;;;;;;0.90;0.33;;;8.60;41.00;;;;;;5033434;28;20627;-50
2023/12/22 03:09:50;;;;;;;1.17;0.83;;;8.60;41.20;;;;;;5033570;28;20168;-52
2023/12/22 03:12:16;;;;;;;1.50;1.40;;;8.60;41.00;;;;;;5033517;28;20208;-49
2023/12/22 03:14:41;;;;;;;0.80;0.35;;;8.60;40.80;;;;;;5033666;28;20170;-47
2023/12/22 03:17:07;;;;;;;0.80;0.30;;;8.50;42.20;;;;;;5033223;28;20177;-54
2023/12/22 03:19:33;;;;;;;0.90;0.57;;;8.60;42.10;;;;;;5033316;28;20181;-52
2023/12/22 03:22:00;;;;;;;1.33;0.98;;;8.70;42.10;;;;;;5033127;28;20494;-49
2023/12/22 03:24:26;;;;;;;4.20;1.35;;;8.90;41.60;;;;;;5033573;28;20173;-53
2023/12/22 03:26:52;;;;;;;0.90;0.50;;;8.80;41.30;;;;;;5033247;28;20459;-55
2023/12/22 03:29:18;;;;;;;1.52;0.80;;;8.80;41.00;;;;;;5033165;28;20577;-50
2023/12/22 03:31:45;;;;;;;4.37;0.80;;;8.80;40.60;;;;;;5033026;28;20275;-49
2023/12/22 03:34:11;;;;;;;0.80;0.20;;;8.90;41.50;;;;;;5032988;28;20420;-51
2023/12/22 03:36:37;;;;;;;4.03;0.88;;;8.90;40.00;;;;;;5032996;28;20186;-49
2023/12/22 03:39:03;;;;;;;1.00;0.90;;;8.80;39.50;;;;;;5032876;28;20185;-53
2023/12/22 03:41:30;;;;;;;0.90;0.40;;;8.80;39.80;;;;;;5032964;28;20428;-53
2023/12/22 03:43:58;;;;;;;2.03;1.05;;;8.70;39.10;;;;;;5032921;28;20412;-48
2023/12/22 03:46:24;;;;;;;0.90;0.52;;;8.60;39.50;;;;;;5032795;28;20559;-50
2023/12/22 03:48:51;;;;;;;1.77;0.70;;;8.60;40.00;;;;;;5032547;28;20311;-52
2023/12/22 03:51:17;;;;;;;6.25;1.58;;;8.70;39.60;;;;;;5032594;28;20436;-47
2023/12/22 03:53:42;;;;;;;4.60;1.23;;;8.70;39.80;;;;;;5032915;28;20219;-48
2023/12/22 03:56:09;;;;;;;5.50;1.80;;;8.70;39.60;;;;;;5032682;28;20181;-51
2023/12/22 03:58:35;;;;;;;0.80;0.20;;;8.80;39.80;;;;;;5032486;28;20654;-49
2023/12/22 04:01:01;;;;;;;0.80;0.30;;;8.80;39.30;;;;;;5032439;28;20208;-48
2023/12/22 04:03:27;;;;;;;0.80;0.30;;;8.60;38.90;;;;;;5032585;28;20176;-50
2023/12/22 04:05:52;;;;;;;0.90;0.47;;;8.60;39.60;;;;;;5032433;28;20452;-47
2023/12/22 04:08:19;;;;;;;2.40;0.50;;;8.80;39.10;;;;;;5032555;28;20169;-48
2023/12/22 04:10:45;;;;;;;1.45;0.70;;;8.90;39.30;;;;;;5032365;28;20206;-53
2023/12/22 04:13:11;;;;;;;0.87;0.50;;;9.00;38.60;;;;;;5031594;28;20535;-49
2023/12/22 04:15:37;;;;;;;1.20;0.90;;;8.90;38.40;;;;;;5032358;28;20181;-47
2023/12/22 04:18:03;;;;;;;0.90;0.40;;;8.90;38.60;;;;;;5023775;28;20182;-51
2023/12/22 04:20:28;;;;;;;4.97;2.63;;;9.00;37.90;;;;;;5032236;28;20197;-52
2023/12/22 04:22:54;;;;;;;4.47;0.87;;;8.90;37.20;;;;;;5032197;28;20423;-48
2023/12/22 04:25:21;;;;;;;0.80;0.30;;;8.80;37.70;;;;;;5032108;28;20671;-48
2023/12/22 04:27:47;;;;;;;0.90;0.40;;;8.70;38.00;;;;;;5032019;28;20228;-51
2023/12/22 04:30:13;;;;;;;3.15;0.50;;;8.70;38.40;;;;;;5031953;28;20194;-48
2023/12/22 04:32:39;;;;;;;0.80;0.20;;;8.70;38.30;;;;;;5031928;28;20170;-47
2023/12/22 04:35:05;;;;;;;1.30;1.20;;;8.80;38.40;;;;;;5032260;28;20699;-49
2023/12/22 04:37:30;;;;;;;0.80;0.37;;;8.70;38.80;;;;;;5032050;28;20205;-53
2023/12/22 04:39:56;;;;;;;1.25;0.73;;;8.70;38.50;;;;;;5032073;28;20416;-48
2023/12/22 04:42:22;;;;;;;0.90;0.63;;;8.70;39.00;;;;;;5031810;28;20568;-48
2023/12/22 04:44:48;;;;;;;0.90;0.40;;;8.60;39.00;;;;;;5024094;28;20179;-54
2023/12/22 04:47:15;;;;;;;7.23;1.00;;;8.50;39.30;;;;;;5031332;28;20173;-49
2023/12/22 04:49:41;;;;;;;0.80;0.30;;;8.50;39.30;;;;;;5031817;28;20691;-54
2023/12/22 04:52:07;;;;;;;0.83;0.43;;;8.50;39.10;;;;;;5031818;28;20213;-49
2023/12/22 04:54:33;;;;;;;1.47;0.90;;;8.60;39.10;;;;;;5031816;28;20232;-48
2023/12/22 04:56:58;;;;;;;1.00;0.75;;;8.70;39.30;;;;;;5031800;28;20185;-51
2023/12/22 04:59:24;;;;;;;0.90;0.37;;;8.90;39.00;;;;;;5031657;28;20173;-51
2023/12/22 05:01:50;;;;;;;0.90;0.43;;;8.90;38.60;;;;;;5031468;28;20199;-50
2023/12/22 05:04:17;;;;;;;0.80;0.30;;;8.90;38.40;;;;;;5031990;28;20643;-47
2023/12/22 05:06:43;;;;;;;1.38;0.40;;;8.80;38.60;;;;;;5031647;28;20196;-52
2023/12/22 05:09:08;;;;;;;0.90;0.40;;;8.80;38.50;;;;;;5031469;28;20716;-47
2023/12/22 05:11:35;;;;;;;2.70;1.00;;;8.80;38.80;;;;;;5031499;28;20220;-49
2023/12/22 05:14:00;;;;;;;0.80;0.30;;;8.40;40.30;;;;;;5031511;28;20181;-53
2023/12/22 05:16:26;;;;;;;1.00;0.60;;;8.30;40.60;;;;;;5031609;28;20543;-53
2023/12/22 05:18:52;;;;;;;0.87;0.40;;;8.40;40.30;;;;;;5031517;28;20239;-49
2023/12/22 05:21:17;;;;;;;0.80;0.40;;;8.50;40.70;;;;;;5031614;28;20546;-51
2023/12/22 05:23:43;;;;;;;1.10;0.50;;;8.30;41.00;;;;;;5031935;28;20185;-48
2023/12/22 05:26:09;;;;;;;0.90;0.45;;;8.30;41.70;;;;;;5035383;28;20209;-49
2023/12/22 05:28:34;;;;;;;1.23;0.50;;;8.20;41.10;;;;;;5035248;28;20172;-52
2023/12/22 05:31:00;;;;;;;0.90;0.40;;;8.30;41.40;;;;;;5035159;28;20205;-49
2023/12/22 05:33:26;;;;;;;1.10;0.70;;;8.30;41.30;;;;;;5035608;28;20262;-49
2023/12/22 05:35:52;;;;;;;0.80;0.30;;;8.10;41.80;;;;;;5035406;28;20176;-55
2023/12/22 05:38:18;;;;;;;0.90;0.52;;;8.10;41.50;;;;;;5019122;28;20541;-48
2023/12/22 05:40:44;;;;;;;1.87;0.77;;;8.00;42.00;;;;;;5035080;28;20287;-50
2023/12/22 05:43:10;;;;;;;0.80;0.30;;;7.90;42.60;;;;;;5035158;28;20314;-47
2023/12/22 05:45:36;;;;;;;0.80;0.20;;;8.00;42.40;;;;;;5034917;28;20288;-50
2023/12/22 05:48:02;;;;;;;0.80;0.23;;;7.90;42.80;;;;;;5034991;28;20650;-49
2023/12/22 05:50:28;;;;;;;0.90;0.40;;;7.90;43.00;;;;;;5035102;28;20193;-49
2023/12/22 05:52:54;;;;;;;0.90;0.63;;;8.10;42.60;;;;;;5034964;28;20411;-54
2023/12/22 05:55:19;;;;;;;0.80;0.30;;;8.00;42.00;;;;;;5035064;28;20174;-48
2023/12/22 05:57:45;;;;;;;0.90;0.47;;;8.00;42.00;;;;;;5034748;28;20177;-51
2023/12/22 06:00:12;;;;;;;1.00;0.70;;;8.00;42.00;;;;;;5034560;28;20186;-50
2023/12/22 06:02:38;;;;;;;0.85;0.45;;;8.00;42.10;;;;;;5035153;28;20427;-48
2023/12/22 06:05:04;;;;;;;0.80;0.30;;;7.90;42.30;;;;;;5034845;28;20208;-48
2023/12/22 06:07:30;;;;;;;0.90;0.47;;;8.00;42.10;;;;;;5034769;28;20230;-49
2023/12/22 06:09:56;;;;;;;0.90;0.40;;;8.10;42.00;;;;;;5034654;28;20670;-48
2023/12/22 06:12:21;;;;;;;0.80;0.40;;;8.20;41.80;;;;;;5034428;28;20273;-48
2023/12/22 06:14:47;;;;;;;0.90;0.40;;;8.00;42.10;;;;;;5034472;28;20581;-50
2023/12/22 06:19:41;;;;;;;0.90;0.50;;;7.90;42.60;;;;;;5034966;28;20215;-46
2023/12/22 06:22:07;;;;;;;1.60;0.50;;;8.00;42.80;;;;;;5044183;28;20632;-48
2023/12/22 06:24:36;;;;;;;0.80;0.40;;;8.00;43.00;;;;;;5034486;28;20170;-55
2023/12/22 06:27:01;;;;;;;0.80;0.20;;;7.90;42.80;;;;;;5034556;28;20225;-47
2023/12/22 06:29:27;;;;;;;0.80;0.40;;;7.90;42.60;;;;;;5034291;28;20205;-48
2023/12/22 06:31:53;;;;;;;1.43;0.70;;;7.80;42.70;;;;;;5034502;28;20634;-54
2023/12/22 06:34:19;;;;;;;0.98;0.47;;;7.90;42.10;;;;;;5034450;28;20166;-52
2023/12/22 06:36:44;;;;;;;0.80;0.50;;;7.70;42.70;;;;;;5033644;28;20524;-46
2023/12/22 06:39:10;;;;;;;0.80;0.33;;;7.80;42.20;;;;;;5034281;28;20805;-50
2023/12/22 06:41:36;;;;;;;0.80;0.30;;;7.80;42.30;;;;;;5034251;28;20456;-52
2023/12/22 06:44:02;;;;;;;0.80;0.33;;;8.10;41.30;;;;;;5034246;28;20231;-48
2023/12/22 06:46:30;;;;;;;0.90;0.40;;;8.10;40.60;;;;;;5034083;28;20442;-48
2023/12/22 06:48:56;;;;;;;0.90;0.70;;;8.00;40.60;;;;;;5034154;28;20194;-48
2023/12/22 06:51:26;;;;;;;0.88;0.45;;;7.80;40.20;;;;;;5034083;28;20225;-47
2023/12/22 06:53:54;;;;;;;0.80;0.40;;;7.70;41.00;;;;;;5034146;28;20524;-52
2023/12/22 06:56:28;;;;;;;0.80;0.20;;;7.80;40.30;;;;;;5034146;28;20169;-47
2023/12/22 06:58:57;;;;;;;0.95;0.50;;;7.90;40.70;;;;;;5033696;28;20239;-50
2023/12/22 07:01:33;;;;;;;3.20;0.60;;;7.90;40.40;;;;;;5033968;28;20188;-52
2023/12/22 07:04:03;;;;;;;0.80;0.20;;;7.60;41.50;;;;;;5033942;28;20161;-47
2023/12/22 07:06:30;;;;;;;0.80;0.20;;;7.60;41.30;;;;;;5033802;28;20209;-52
2023/12/22 07:08:57;;;;;;;0.90;0.40;;;7.70;41.20;;;;;;5033546;28;20204;-47
2023/12/22 07:11:23;;;;;;;8.02;0.70;;;7.50;41.60;;;;;;5033714;28;20197;-50
2023/12/22 07:13:48;;;;;;;0.80;0.22;;;7.60;41.50;;;;;;5033589;28;20190;-49
2023/12/22 07:16:15;;;;;;;9.83;0.63;;;7.80;40.90;;;;;;5033653;28;20180;-50
2023/12/22 07:18:41;;;;;;;1.65;0.93;;;7.90;40.90;;;;;;5033263;28;20208;-52
2023/12/22 07:21:07;;;;;;;0.80;0.30;;;7.60;41.40;;;;;;5033558;28;20233;-47
2023/12/22 07:23:33;;;;;;;0.90;0.50;;;7.60;42.00;;;;;;5033530;28;20432;-49
2023/12/22 07:25:58;;;;;;;0.90;0.40;;;7.60;41.40;;;;;;5033346;28;20643;-53
2023/12/22 07:28:24;;;;;;;0.90;0.30;;;7.70;41.10;;;;;;5033334;28;20329;-48
2023/12/22 07:30:50;;;;;;;0.80;0.20;;;7.60;41.60;;;;;;5033351;28;20632;-47
2023/12/22 07:33:16;;;;;;;0.80;0.20;;;7.60;41.50;;;;;;5033302;28;20172;-54
2023/12/22 07:35:41;;;;;;;1.27;0.60;;;7.50;42.10;;;;;;5033334;28;20412;-46
2023/12/22 07:38:08;;;;;;;0.80;0.30;;;7.60;41.90;;;;;;5032950;28;20252;-48
2023/12/22 07:40:34;;;;;;;2.17;1.58;;;7.40;42.70;;;;;;5033125;28;20182;-51
2023/12/22 07:43:00;;;;;;;1.10;0.53;;;7.40;42.90;;;;;;5033100;28;20879;-46
2023/12/22 07:45:25;;;;;;;0.80;0.20;;;7.50;42.60;;;;;;5033245;28;20202;-53
2023/12/22 07:47:52;;;;;;;0.80;0.23;;;8.50;42.80;;;;;;5032861;28;20204;-53
2023/12/22 07:50:18;;;;;;;0.80;0.30;;;7.70;43.00;;;;;;5032935;28;20264;-45
2023/12/22 07:52:43;;;;;;;0.80;0.30;;;7.60;43.50;;;;;;5032992;28;20193;-50
2023/12/22 07:55:10;;;;;;;0.80;0.30;;;7.50;44.30;;;;;;5032876;28;20409;-47
2023/12/22 07:57:36;;;;;;;0.80;0.22;;;7.70;44.50;;;;;;5032621;28;20431;-47
2023/12/22 08:00:04;;;;;;;0.90;0.55;;;7.70;44.80;;;;;;5032942;28;20217;-50
2023/12/22 08:02:30;;;;;;;0.88;0.45;;;7.70;45.00;;;;;;5032820;28;20178;-50
2023/12/22 08:04:55;;;;;;;0.80;0.20;;;7.80;44.70;;;;;;5032696;28;20548;-47
2023/12/22 08:07:21;;;;;;;7.87;0.60;;;7.90;45.00;;;;;;5032489;28;20172;-45
2023/12/22 08:09:47;;;;;;;0.80;0.20;;;7.90;45.30;;;;;;5032545;28;20701;-55
2023/12/22 08:12:13;;;;;;;0.80;0.20;;;7.60;46.20;;;;;;5032523;28;20402;-51
2023/12/22 08:14:38;;;;;;;0.80;0.23;;;7.60;45.90;;;;;;5032625;28;20168;-55
2023/12/22 08:17:04;;;;;;;0.80;0.20;;;7.60;45.80;;;;;;5032565;28;20571;-53
2023/12/22 08:19:30;;;;;;;0.80;0.30;;;7.40;46.80;;;;;;5032174;28;20222;-49
2023/12/22 08:21:56;;;;;;;0.80;0.30;;;6.90;47.50;;;;;;5032488;28;20239;-46
2023/12/22 08:24:22;;;;;;;0.80;0.20;;;6.70;48.30;;;;;;5032335;28;20665;-51
2023/12/22 08:26:48;;;;;;;0.80;0.20;;;6.70;48.20;;;;;;5032401;28;20455;-46
2023/12/22 08:29:15;;;;;;;0.80;0.20;;;6.80;48.20;;;;;;5032135;28;20221;-54
2023/12/22 08:31:41;;;;;;;0.85;0.35;;;6.80;48.60;;;;;;5032379;28;20186;-48
2023/12/22 08:34:07;;;;;;;0.80;0.20;;;6.90;48.30;;;;;;5032369;28;20170;-51
2023/12/22 08:36:33;;;;;;;0.80;0.20;;;6.90;48.30;;;;;;5032298;28;20401;-48
2023/12/22 08:38:58;;;;;;;2.70;1.20;;;7.00;47.90;;;;;;5031869;28;20201;-46
2023/12/22 08:41:24;;;;;;;0.80;0.20;;;7.10;47.50;;;;;;5032178;28;20409;-49
2023/12/22 08:43:50;;;;;;;0.80;0.30;;;7.10;47.00;;;;;;5032098;28;20244;-47
2023/12/22 08:46:16;;;;;;;0.80;0.30;;;7.10;46.60;;;;;;5032096;28;20514;-46
2023/12/22 08:48:42;;;;;;;0.80;0.33;;;7.20;46.60;;;;;;5031910;28;20829;-53
2023/12/22 08:51:08;;;;;;;0.80;0.20;;;7.10;46.50;;;;;;5032000;28;20197;-46
2023/12/22 08:53:36;;;;;;;1.70;1.60;;;7.00;47.30;;;;;;5031905;28;20201;-55
2023/12/22 08:56:03;;;;;;;0.80;0.40;;;6.90;47.40;;;;;;5032090;28;20182;-55
2023/12/22 08:58:30;;;;;;;0.80;0.20;;;6.90;48.00;;;;;;5031370;28;20208;-47
2023/12/22 09:00:55;;;;;;;0.90;0.35;;;6.90;48.30;;;;;;5031950;28;20254;-50
2023/12/22 09:03:21;;;;;;;0.80;0.30;;;6.90;48.40;;;;;;5031914;28;20198;-54
2023/12/22 09:05:47;;;;;;;0.90;0.40;;;7.00;48.30;;;;;;5031875;28;20280;-46
2023/12/22 09:08:13;;;;;;;0.80;0.30;;;7.10;47.80;;;;;;5031586;28;20196;-47
2023/12/22 09:10:39;;;;;;;2.10;0.50;;;7.10;48.50;;;;;;5031825;28;20477;-54
2023/12/22 09:13:04;;;;;;;0.80;0.20;;;7.10;48.60;;;;;;5031826;28;20406;-55
2023/12/22 09:15:30;;;;;;;0.80;0.30;;;7.10;49.30;;;;;;5031859;28;20438;-47
2023/12/22 09:17:56;;;;;;;1.00;0.40;;;7.20;49.50;;;;;;5031555;28;20208;-56
2023/12/22 09:20:22;;;;;;;0.80;0.30;;;7.20;48.90;;;;;;5031766;28;20175;-52
2023/12/22 09:22:48;;;;;;;0.80;0.40;;;7.20;48.80;;;;;;5031727;28;20166;-48
2023/12/22 09:25:14;;;;;;;0.80;0.30;;;7.10;48.90;;;;;;5031959;28;20640;-55
2023/12/22 09:27:40;;;;;;;0.80;0.20;;;7.10;47.90;;;;;;5031517;28;20551;-47
2023/12/22 09:30:09;;;;;;;0.80;0.20;;;7.10;48.10;;;;;;5031817;28;20170;-50
2023/12/22 09:32:34;;;;;;;0.90;0.40;;;7.10;48.00;;;;;;5031676;28;20490;-46
2023/12/22 09:35:01;;;;;;;0.80;0.30;;;7.30;48.00;;;;;;5031695;28;20624;-54
2023/12/22 09:37:27;;;;;;;0.80;0.20;;;7.20;48.00;;;;;;5031349;28;20198;-53
2023/12/22 09:39:53;;;;;;;0.80;0.37;;;7.30;48.00;;;;;;5031694;28;20528;-49
2023/12/22 09:42:20;;;;;;;0.80;0.30;;;7.60;48.30;;;;;;5031568;28;20401;-46
2023/12/22 09:44:51;;;;;;;0.80;0.25;;;8.20;47.90;;;;;;5031577;28;20192;-55
2023/12/22 09:47:18;;;;;;;0.80;0.28;;;8.30;46.60;;;;;;5031473;28;20262;-49
2023/12/22 09:49:46;;;;;;;0.93;0.40;;;8.30;46.50;;;;;;5031432;28;20170;-48
2023/12/22 09:52:13;;;;;;;0.80;0.20;;;8.40;46.30;;;;;;5031492;28;20231;-50
2023/12/22 09:54:41;;;;;;;0.80;0.30;;;8.20;46.30;;;;;;5031504;28;20174;-50
2023/12/22 09:57:07;;;;;;;0.80;0.25;;;8.20;46.70;;;;;;5031292;28;20182;-47
2023/12/22 09:59:34;;;;;;;0.82;0.30;;;8.20;47.10;;;;;;5031439;28;20209;-49
2023/12/22 10:02:02;;;;;;;0.90;0.52;;;8.20;46.40;;;;;;5031492;28;20181;-51
2023/12/22 10:04:28;;;;;;;0.90;0.35;;;8.30;45.10;;;;;;5031419;28;20178;-47
2023/12/22 10:07:00;;;;;;;0.80;0.30;;;8.30;45.60;;;;;;5031340;28;20208;-48
2023/12/22 10:09:26;;;;;;;0.80;0.30;;;8.30;44.60;;;;;;5031247;28;20500;-55
2023/12/22 10:11:53;;;;;;;0.80;0.20;;;8.20;44.40;;;;;;5033246;28;20183;-49
2023/12/22 10:14:22;;;;;;;0.80;0.30;;;8.30;43.60;;;;;;5034889;28;20183;-48
2023/12/22 10:16:51;;;;;;;1.65;1.05;;;8.30;44.20;;;;;;5034748;28;20220;-50
2023/12/22 10:19:18;;;;;;;0.90;0.52;;;8.20;41.10;;;;;;5034436;28;20211;-47
2023/12/22 10:21:44;;;;;;;0.80;0.20;;;8.00;41.90;;;;;;5034958;28;20190;-46
2023/12/22 10:24:42;;;;;;;0.80;0.20;;;8.00;42.40;;;;;;5034691;28;20166;-53
2023/12/22 10:27:08;;;;;;;0.80;0.20;;;8.60;43.00;;;;;;5034388;28;20230;-50
2023/12/22 10:29:35;;;;;;;1.92;0.45;;;8.90;40.00;;;;;;5034619;28;20190;-47
2023/12/22 10:32:02;;;;;;;0.90;0.50;;;8.90;40.00;;;;;;5034757;28;20172;-51
2023/12/22 10:34:28;;;;;;;0.80;0.30;;;8.90;38.30;;;;;;5034616;28;20187;-48
2023/12/22 10:36:54;;;;;;;0.80;0.30;;;8.80;39.00;;;;;;5034414;28;20195;-47
2023/12/22 10:39:23;;;;;;;0.90;0.50;;;8.90;39.30;;;;;;5034082;28;20652;-54
2023/12/22 10:41:49;;;;;;;0.80;0.30;;;8.60;39.00;;;;;;5034191;28;20902;-48
2023/12/22 10:44:17;;;;;;;0.93;0.50;;;8.40;40.00;;;;;;5034250;28;20239;-49
2023/12/22 10:46:43;;;;;;;0.80;0.30;;;8.50;40.70;;;;;;5034163;28;20453;-54
2023/12/22 10:49:09;;;;;;;0.80;0.30;;;9.50;40.20;;;;;;5033945;28;20664;-56
2023/12/22 10:51:35;;;;;;;1.00;0.40;;;10.00;39.10;;;;;;5034206;28;20260;-49
2023/12/22 10:54:00;;;;;;;1.00;0.43;;;10.00;37.90;;;;;;5034074;28;20575;-46
2023/12/22 10:56:28;;;;;;;0.80;0.30;;;9.90;37.80;;;;;;5033928;28;20548;-51
2023/12/22 10:58:54;;;;;;;0.90;0.40;;;9.70;38.10;;;;;;5033954;28;20232;-47
2023/12/22 11:01:22;;;;;;;2.15;0.70;;;9.20;37.90;;;;;;5034107;28;20182;-47
2023/12/22 11:03:51;;;;;;;0.80;0.30;;;9.00;39.10;;;;;;5034064;28;20178;-49
2023/12/22 11:06:17;;;;;;;0.82;0.35;;;8.90;39.60;;;;;;5033731;28;20206;-49
2023/12/22 11:08:44;;;;;;;0.80;0.20;;;8.80;40.70;;;;;;5033651;28;20186;-46
2023/12/22 11:11:32;;;;;;;0.80;0.30;;;8.70;43.10;;;;;;5033614;28;20546;-50
2023/12/22 11:13:59;;;;;;;0.80;0.20;;;8.30;44.90;;;;;;5033703;28;20170;-47
2023/12/22 11:16:27;;;;;;;0.80;0.20;;;8.10;45.80;;;;;;5033688;28;20209;-49
2023/12/22 11:18:54;;;;;;;1.95;0.75;;;8.00;46.30;;;;;;5033316;28;20220;-53
2023/12/22 11:21:22;;;;;;;0.80;0.30;;;8.00;46.20;;;;;;5033515;28;20189;-48
2023/12/22 11:23:50;;;;;;;0.80;0.40;;;8.10;46.10;;;;;;5033242;28;20185;-47
2023/12/22 11:26:21;;;;;;;0.90;0.45;;;8.10;46.20;;;;;;5033398;28;20343;-50
2023/12/22 11:28:49;;;;;;;0.80;0.20;;;8.10;46.20;;;;;;5033221;28;20574;-48
2023/12/22 11:31:18;;;;;;;0.80;0.30;;;8.20;45.80;;;;;;5033339;28;20636;-52
2023/12/22 11:33:46;;;;;;;0.80;0.20;;;8.40;46.70;;;;;;5033496;28;20237;-47
2023/12/22 11:36:13;;;;;;;0.80;0.30;;;8.60;45.70;;;;;;5033239;28;20178;-46
2023/12/22 11:38:40;;;;;;;0.80;0.30;;;8.70;45.40;;;;;;5032919;28;20208;-53
2023/12/22 11:41:10;;;;;;;0.80;0.40;;;8.80;44.80;;;;;;5033153;28;20691;-47
2023/12/22 11:43:38;;;;;;;0.80;0.20;;;8.60;44.90;;;;;;5033261;28;20186;-47
2023/12/22 11:46:04;;;;;;;0.80;0.25;;;8.40;45.60;;;;;;5033061;28;20653;-56
2023/12/22 11:48:30;;;;;;;2.28;1.00;;;8.50;45.60;;;;;;5032807;28;20198;-53
2023/12/22 11:50:56;;;;;;;2.00;0.98;;;8.40;45.20;;;;;;5032966;28;20181;-48
2023/12/22 11:53:29;;;;;;;1.15;0.68;;;8.40;45.20;;;;;;5033191;28;20173;-49
2023/12/22 11:56:08;;;;;;;1.63;1.38;;;8.40;45.00;;;;;;5032954;28;20735;-54
2023/12/22 11:58:51;;;;;;;0.80;0.30;;;8.60;44.80;;;;;;5032867;28;20285;-46
2023/12/22 12:01:18;;;;;;;1.00;0.30;;;8.70;44.70;;;;;;5032835;28;20189;-53
2023/12/22 12:03:58;;;;;;;0.80;0.40;;;8.80;44.40;;;;;;5032735;28;20172;-48
2023/12/22 12:06:30;;;;;;;1.40;0.85;;;8.90;43.80;;;;;;5032789;28;20674;-48
2023/12/22 12:09:04;;;;;;;0.80;0.20;;;8.80;43.40;;;;;;5032455;28;20190;-54
2023/12/22 12:11:52;;;;;;;9.75;1.95;;;8.90;43.50;;;;;;5032579;28;20182;-47
2023/12/22 12:14:23;;;;;;;0.80;0.30;;;9.00;43.00;;;;;;5032569;28;20170;-51
2023/12/22 12:16:49;;;;;;;0.98;0.55;;;9.10;43.20;;;;;;5032738;28;20187;-47
2023/12/22 12:19:15;;;;;;;1.95;1.58;;;9.20;43.00;;;;;;5032192;28;20213;-49
2023/12/22 12:21:40;;;;;;;0.80;0.40;;;9.40;43.40;;;;;;5055540;22;20214;-56
2023/12/22 12:24:07;;;;;;;0.90;0.50;;;9.50;42.80;;;;;;5032153;28;20230;-48
2023/12/22 12:26:33;;;;;;;1.10;0.55;;;9.60;41.90;;;;;;5032228;28;20226;-48
2023/12/22 12:29:01;;;;;;;4.73;0.83;;;9.60;40.80;;;;;;5031885;28;20253;-52
2023/12/22 12:31:41;;;;;;;1.33;0.73;;;9.50;41.60;;;;;;5032160;28;20439;-48
2023/12/22 12:34:10;;;;;;;0.90;0.40;;;9.60;41.40;;;;;;5031671;28;20709;-53
2023/12/22 12:36:37;;;;;;;0.85;0.30;;;9.60;41.80;;;;;;5031975;28;20208;-52
2023/12/22 12:39:07;;;;;;;0.80;0.32;;;9.50;41.90;;;;;;5031808;28;20228;-51
2023/12/22 12:41:39;;;;;;;7.00;0.82;;;9.30;41.50;;;;;;5031820;28;20221;-57
2023/12/22 12:44:06;;;;;;;0.80;0.20;;;9.20;40.80;;;;;;5031989;28;20232;-48
2023/12/22 12:46:35;;;;;;;0.80;0.30;;;8.70;41.70;;;;;;5031959;28;20196;-50
2023/12/22 12:49:08;;;;;;;0.80;0.28;;;8.60;43.00;;;;;;5023489;28;20193;-57
2023/12/22 12:51:44;;;;;;;0.80;0.30;;;8.60;43.30;;;;;;5031839;28;20187;-50
2023/12/22 12:54:10;;;;;;;1.00;0.60;;;8.50;43.80;;;;;;5031750;28;20192;-58
2023/12/22 12:56:47;;;;;;;0.90;0.25;;;8.40;44.30;;;;;;5032064;28;20182;-58
2023/12/22 12:59:17;;;;;;;0.80;0.20;;;8.30;44.90;;;;;;5031772;28;20185;-51